Aérodrome :
LOGIN :

S'inscrire | Disclaimer

   EN    FR    IT 

 










Légende :    VFR   VFR Marginal   IFR   IFR Intensif   IFR Très Intensif
Visi : 
Plafond : 
>= 8 km
>= 3000ft
5 à 8 km
1000 à 3000 ft
1500m à 5 km
500 à 1000 ft
800 à 1500m
200 à 500 ft
< 800m
< 200 ft
Symboles :   Orages  Brouillard  Fortes neiges  Fortes précipitations  Vent > 20 kt
SIGMETs :   Divers  Orages  Givrage  Turbulence  Onde Orograph.  Cendres Volcan.







- Altitude de l'aérodrome : 1197 ft
- Code IATA : SPM


ETAD - Spangdahlem Ab

DERNIER METAR :
  • 261756Z AUTO 02012G16KT 9999 CLR 30/18 A3021 RMK AO2 SLP199 T02990180 10347 20299 55004 $

METARs EXPIRÉS :
  • 261656Z AUTO 02012KT 9999 CLR 32/21 A3020 RMK AO2 SLP196 T03200206 $
  • 261556Z AUTO 01006KT 9999 CLR 34/19 A3020 RMK AO2 SLP196 T03370186 $
  • 261456Z AUTO 07004KT 9999 CLR 33/18 A3022 RMK AO2 SLP203 T03340179 57009

TAF TAF ETAD
Valide du 26 à 12h jusqu'au 27 à 18h UTC


261200Z 2612/2718 08005KT 9999 FEW050 QNH3023INS
BECMG 2617/2618 04008KT 9999 FEW045 QNH3025INS
BECMG 2708/2709 05006KT 9999 SKC QNH3027INS TX33/2614Z TN23/2704Z
Pas de NOTAMs connus pour ce terrain.



MET'MAP, la Météo Aéronautique d'un coup d'oeil ! - Copyright ORBIFLY Décembre 2007 - Disclaimer

ORBIFLY MET'MAP TEAM :

Programmation & Développement : Alexandra Zaïnal
Conception & Développement : Baudouin d'Aumeries
Co-Programmation & Développement : Marc-Olivier Méhu
Soutien technique & logistique : Manuel Goepfert

Contact : metmap@orbifly.com




SOURCES & CREDITS :

   NOAA